Time;durP1;ratioP1;P1;durP2;ratioP2;P2;SDS_P1;SDS_P2;PMS_P1;PMS_P2;Temp;Humidity;BMP_temperature;BMP_pressure;BME280_temperature;BME280_humidity;BME280_pressure;Samples;Min_cycle;Max_cycle;Signal;HPM_P1;HPM_P2
2021/06/02 00:01:46;;;;;;;8.40;5.05;;;;;;;6.64;75.43;95400.31;4826077;29;20081;-67
2021/06/02 00:04:15;;;;;;;11.18;6.13;;;;;;;6.59;75.49;95405.47;4827599;29;20469;-67
2021/06/02 00:06:43;;;;;;;11.18;7.65;;;;;;;6.53;75.51;95403.84;4822852;29;20043;-67
2021/06/02 00:09:09;;;;;;;11.15;6.70;;;;;;;6.50;75.66;95409.56;4820735;29;20054;-67
2021/06/02 00:11:36;;;;;;;13.80;8.90;;;;;;;6.45;76.26;95406.91;4823338;29;20576;-67
2021/06/02 00:14:04;;;;;;;15.38;7.70;;;;;;;6.39;75.72;95412.09;4823088;29;20135;-67
2021/06/02 00:16:29;;;;;;;8.73;5.97;;;;;;;6.39;75.55;95409.47;4825496;29;20416;-67
2021/06/02 00:18:56;;;;;;;7.20;5.28;;;;;;;6.32;76.16;95403.66;4836847;29;20185;-67
2021/06/02 00:21:22;;;;;;;7.63;4.93;;;;;;;6.24;76.33;95406.69;4823720;29;20374;-67
2021/06/02 00:23:47;;;;;;;8.73;5.53;;;;;;;6.24;76.16;95417.13;4835295;29;20084;-67
2021/06/02 00:26:14;;;;;;;8.18;5.68;;;;;;;6.15;76.41;95408.13;4825016;29;20112;-67
2021/06/02 00:28:41;;;;;;;10.68;5.32;;;;;;;6.20;76.29;95405.59;4836469;29;20060;-67
2021/06/02 00:31:07;;;;;;;7.28;4.72;;;;;;;6.09;76.08;95406.50;4821444;29;20596;-67
2021/06/02 00:33:32;;;;;;;8.60;5.38;;;;;;;6.05;76.42;95404.38;4822672;29;20055;-67
2021/06/02 00:36:01;;;;;;;9.60;5.15;;;;;;;5.96;76.72;95399.78;4821802;29;20062;-67
2021/06/02 00:38:27;;;;;;;7.53;5.00;;;;;;;5.91;77.22;95403.13;4822068;29;20105;-67
2021/06/02 00:40:52;;;;;;;7.57;5.10;;;;;;;5.84;77.51;95399.88;4823013;29;20425;-67
2021/06/02 00:43:19;;;;;;;9.10;4.68;;;;;;;5.87;77.37;95407.25;4821992;29;20129;-67
2021/06/02 00:45:48;;;;;;;8.60;5.07;;;;;;;5.85;77.31;95404.09;4821385;29;20061;-67
2021/06/02 00:48:16;;;;;;;8.65;5.40;;;;;;;5.90;77.19;95396.31;4822426;29;20057;-67
2021/06/02 00:50:47;;;;;;;7.72;4.78;;;;;;;5.84;77.40;95399.88;4826029;29;20050;-67
2021/06/02 00:53:13;;;;;;;6.95;4.63;;;;;;;5.84;77.34;95397.28;4838204;29;20077;-67
2021/06/02 00:55:40;;;;;;;8.30;4.70;;;;;;;5.82;77.22;95399.31;4822156;29;20079;-67
2021/06/02 00:58:08;;;;;;;9.18;4.50;;;;;;;5.79;77.56;95394.59;4821453;29;20061;-67
2021/06/02 01:00:34;;;;;;;9.35;4.95;;;;;;;5.75;77.56;95396.09;4808910;29;20540;-67
2021/06/02 01:03:03;;;;;;;8.77;5.20;;;;;;;5.70;77.68;95397.63;4822109;29;20046;-67
2021/06/02 01:05:29;;;;;;;5.97;4.38;;;;;;;5.65;77.67;95394.94;4824117;29;20511;-67
2021/06/02 01:08:03;;;;;;;9.07;5.00;;;;;;;5.64;78.28;95395.97;4827770;29;20110;-67
2021/06/02 01:10:29;;;;;;;;;;;;;;;5.55;78.57;95394.81;4832536;29;20070;-67
2021/06/02 01:12:59;;;;;;;9.30;4.72;;;;;;;5.53;77.85;95407.28;4823194;29;19925;-67
2021/06/02 01:15:26;;;;;;;8.15;4.90;;;;;;;5.50;78.03;95407.78;4822851;29;20047;-67
2021/06/02 01:17:52;;;;;;;12.23;4.78;;;;;;;5.48;78.25;95402.00;4823023;29;20145;-67
2021/06/02 01:20:19;;;;;;;8.52;4.82;;;;;;;5.45;77.99;95405.09;4821775;29;20053;-67
2021/06/02 01:22:45;;;;;;;8.77;4.75;;;;;;;5.34;78.63;95399.75;4821998;29;20099;-67
2021/06/02 01:25:14;;;;;;;9.43;5.25;;;;;;;5.32;78.43;95396.56;4822320;29;20065;-67
2021/06/02 01:27:40;;;;;;;7.57;4.97;;;;;;;5.35;78.43;95396.09;4825301;29;20060;-67
2021/06/02 01:30:11;;;;;;;8.32;4.82;;;;;;;5.37;77.98;95394.03;4819347;29;20047;-67
2021/06/02 01:32:53;;;;;;;8.02;4.82;;;;;;;5.27;78.52;95396.50;4822293;29;20099;-67
2021/06/02 01:35:50;;;;;;;7.03;4.93;;;;;;;5.25;78.45;95390.72;4835708;29;20065;-67
2021/06/02 01:38:22;;;;;;;7.20;4.72;;;;;;;5.24;79.34;95402.19;4820975;29;20051;-67
2021/06/02 01:41:16;;;;;;;9.52;5.45;;;;;;;5.15;79.05;95390.56;4835289;29;20054;-68
2021/06/02 01:44:18;;;;;;;7.75;4.68;;;;;;;5.17;78.83;95388.50;4821388;29;20046;-67
2021/06/02 01:47:15;;;;;;;9.32;5.00;;;;;;;5.13;79.10;95392.59;4818068;29;20095;-67
2021/06/02 01:50:14;;;;;;;7.15;4.68;;;;;;;5.14;79.63;95394.19;4819692;29;20065;-67
2021/06/02 01:52:42;;;;;;;7.57;4.80;;;;;;;5.13;79.42;95388.19;4826368;29;20046;-69
2021/06/02 01:55:20;;;;;;;8.25;5.35;;;;;;;5.06;80.02;95391.97;4820923;29;20497;-68
2021/06/02 01:58:17;;;;;;;11.70;5.63;;;;;;;4.96;80.41;95393.41;4816677;29;20446;-68
2021/06/02 02:01:20;;;;;;;8.05;4.95;;;;;;;4.92;80.19;95392.28;4820622;29;20094;-68
2021/06/02 02:04:14;;;;;;;8.35;5.10;;;;;;;4.92;79.78;95391.50;4820574;29;20414;-68
2021/06/02 02:06:57;;;;;;;10.30;5.20;;;;;;;4.84;79.96;95390.06;4823309;29;20046;-68
2021/06/02 02:09:29;;;;;;;9.00;5.05;;;;;;;4.81;79.37;95390.53;4824776;29;20160;-70
2021/06/02 02:12:44;;;;;;;8.35;5.32;;;;;;;4.68;79.82;95384.63;4830357;29;20067;-70
2021/06/02 02:15:18;;;;;;;11.83;5.33;;;;;;;4.64;79.54;95386.09;4802947;29;20058;-70
2021/06/02 02:18:04;;;;;;;7.53;5.10;;;;;;;4.57;80.71;95388.06;4821212;29;20133;-67
2021/06/02 02:20:35;;;;;;;7.43;5.10;;;;;;;4.58;80.41;95397.44;4820172;29;20050;-67
2021/06/02 02:23:24;;;;;;;10.15;5.28;;;;;;;4.63;80.17;95399.38;4821521;29;20053;-67
2021/06/02 02:26:22;;;;;;;10.43;5.18;;;;;;;4.62;80.33;95398.56;4820769;29;20046;-67
2021/06/02 02:29:22;;;;;;;8.88;5.07;;;;;;;4.56;80.41;95404.72;4825361;29;20428;-67
2021/06/02 02:32:10;;;;;;;8.98;5.82;;;;;;;4.52;80.54;95403.59;4821077;29;20046;-67
2021/06/02 02:34:53;;;;;;;8.23;5.30;;;;;;;4.51;80.45;95402.00;4818005;29;20553;-67
2021/06/02 02:37:45;;;;;;;8.40;5.18;;;;;;;4.39;80.23;95403.88;4815932;29;20084;-67
2021/06/02 02:40:35;;;;;;;10.27;4.93;;;;;;;4.47;79.04;95404.31;4814789;29;20050;-67
2021/06/02 02:43:21;;;;;;;9.23;5.68;;;;;;;4.40;79.85;95405.47;4814454;29;20436;-67
2021/06/02 02:46:02;;;;;;;10.88;5.85;;;;;;;4.37;80.64;95398.09;4816169;29;20433;-67
2021/06/02 02:49:10;;;;;;;10.88;5.60;;;;;;;4.40;81.66;95400.25;4824904;29;20050;-67
2021/06/02 02:51:36;;;;;;;10.57;5.18;;;;;;;4.55;80.40;95397.13;4818839;29;20050;-67
2021/06/02 02:54:28;;;;;;;10.32;5.40;;;;;;;4.44;80.72;95393.53;4821157;29;20501;-67
2021/06/02 02:57:24;;;;;;;7.97;5.38;;;;;;;4.46;80.85;95399.31;4820337;29;20107;-67
2021/06/02 02:59:58;;;;;;;8.68;5.72;;;;;;;4.38;81.57;95397.88;4816729;29;20058;-67
2021/06/02 03:03:13;;;;;;;8.90;6.20;;;;;;;4.36;82.19;95393.94;4822807;29;20137;-67
2021/06/02 03:05:48;;;;;;;10.25;5.28;;;;;;;4.41;80.75;95397.44;4826388;29;20054;-67
2021/06/02 03:08:32;;;;;;;7.97;5.70;;;;;;;4.44;80.78;95401.34;4804261;29;20054;-67
2021/06/02 03:11:10;;;;;;;9.35;5.43;;;;;;;4.45;80.48;95397.75;4828660;29;20405;-67
2021/06/02 03:14:17;;;;;;;9.82;5.68;;;;;;;4.26;82.00;95408.34;4835497;29;20058;-67
2021/06/02 03:16:53;;;;;;;8.25;5.60;;;;;;;4.26;81.58;95410.94;4813977;29;20449;-67
2021/06/02 03:19:23;;;;;;;11.30;6.05;;;;;;;4.26;81.87;95405.72;4819973;29;20090;-67
2021/06/02 03:22:04;;;;;;;9.13;6.10;;;;;;;4.25;82.42;95414.59;4818959;29;20053;-67
2021/06/02 03:25:01;;;;;;;8.20;5.53;;;;;;;4.25;81.69;95414.59;4824219;29;20061;-67
2021/06/02 03:27:35;;;;;;;9.82;5.95;;;;;;;4.27;81.12;95412.53;4831360;29;20054;-67
2021/06/02 03:30:19;;;;;;;8.07;5.45;;;;;;;4.27;81.23;95412.53;4829752;29;20137;-67
2021/06/02 03:32:55;;;;;;;11.32;6.00;;;;;;;4.25;80.51;95417.19;4823513;29;20054;-67
2021/06/02 03:35:49;;;;;;;11.10;5.97;;;;;;;4.20;80.93;95427.50;4823605;29;20408;-67
2021/06/02 03:38:35;;;;;;;9.77;6.18;;;;;;;4.19;80.47;95420.69;4822514;29;20457;-67
2021/06/02 03:41:08;;;;;;;9.77;5.70;;;;;;;4.20;80.68;95432.72;4824351;29;20054;-67
2021/06/02 03:43:55;;;;;;;8.48;6.15;;;;;;;4.14;81.07;95433.63;4823077;29;20080;-67
2021/06/02 03:46:36;;;;;;;13.35;6.47;;;;;;;4.17;80.79;95422.75;4822485;29;20051;-67
2021/06/02 03:49:16;;;;;;;11.23;5.88;;;;;;;4.23;80.42;95427.03;4829697;29;20046;-67
2021/06/02 03:51:56;;;;;;;8.85;5.60;;;;;;;4.33;79.45;95427.22;4828236;29;20053;-67
2021/06/02 03:54:50;;;;;;;8.55;5.60;;;;;;;4.24;80.52;95433.84;4823787;29;20050;-67
2021/06/02 03:57:34;;;;;;;10.95;6.00;;;;;;;4.33;81.17;95436.88;4823088;29;20117;-67
2021/06/02 04:00:15;;;;;;;9.68;5.95;;;;;;;4.39;79.93;95435.16;4823090;29;20512;-67
2021/06/02 04:03:02;;;;;;;12.25;5.70;;;;;;;4.51;79.38;95438.50;4822975;29;20043;-67
2021/06/02 04:05:49;;;;;;;10.10;5.65;;;;;;;4.47;80.17;95442.59;4823731;29;20050;-67
2021/06/02 04:08:26;;;;;;;8.80;5.45;;;;;;;4.60;80.14;95444.16;4816488;29;20086;-67
2021/06/02 04:11:20;;;;;;;14.70;6.00;;;;;;;4.63;79.16;95447.06;4823238;29;20058;-67
2021/06/02 04:13:56;;;;;;;10.23;6.07;;;;;;;4.55;80.84;95444.03;4818474;29;20074;-67
2021/06/02 04:16:24;;;;;;;9.50;5.80;;;;;;;4.65;81.28;95439.78;4822660;29;20046;-67
2021/06/02 04:18:52;;;;;;;10.15;5.85;;;;;;;4.72;80.94;95446.72;4821929;29;20051;-67
2021/06/02 04:21:20;;;;;;;9.27;5.97;;;;;;;4.78;81.78;95453.59;4821526;29;20054;-67
2021/06/02 04:23:47;;;;;;;9.88;5.50;;;;;;;4.88;81.71;95458.97;4822158;29;20050;-67
2021/06/02 04:26:13;;;;;;;10.60;6.35;;;;;;;5.00;81.34;95457.13;4822762;29;20058;-67
2021/06/02 04:28:40;;;;;;;8.93;5.55;;;;;;;5.15;80.89;95453.19;4822635;29;20066;-67
2021/06/02 04:31:09;;;;;;;10.85;6.22;;;;;;;5.22;81.18;95458.25;4822547;29;20046;-67
2021/06/02 04:33:38;;;;;;;10.35;6.18;;;;;;;5.33;81.29;95460.78;4821730;29;20039;-67
2021/06/02 04:36:06;;;;;;;8.85;5.75;;;;;;;5.53;80.35;95462.91;4821869;29;20046;-67
2021/06/02 04:38:32;;;;;;;15.43;6.00;;;;;;;5.53;82.08;95459.50;4822238;29;20377;-67
2021/06/02 04:41:01;;;;;;;8.73;5.82;;;;;;;5.67;81.84;95465.19;4823531;29;20058;-67
2021/06/02 04:43:27;;;;;;;9.18;6.32;;;;;;;5.86;81.99;95468.34;4821677;29;20505;-67
2021/06/02 04:46:01;;;;;;;10.05;6.47;;;;;;;6.11;81.17;95464.53;4822280;29;20046;-67
2021/06/02 04:48:27;;;;;;;12.27;7.05;;;;;;;6.25;81.07;95460.53;4822108;29;20089;-67
2021/06/02 04:51:07;;;;;;;12.20;6.72;;;;;;;6.33;81.75;95467.94;4821732;29;20046;-67
2021/06/02 04:54:04;;;;;;;10.18;6.82;;;;;;;6.45;81.14;95474.88;4822233;29;20363;-67
2021/06/02 04:57:17;;;;;;;9.07;6.30;;;;;;;6.59;81.30;95473.47;4808701;29;20050;-67
2021/06/02 05:00:04;;;;;;;9.48;6.57;;;;;;;6.89;79.35;95474.81;4815519;29;20066;-67
2021/06/02 05:03:02;;;;;;;10.27;6.53;;;;;;;7.19;78.11;95473.53;4822307;29;20065;-67
2021/06/02 05:05:46;;;;;;;10.10;6.65;;;;;;;7.39;77.03;95478.94;4805863;29;20096;-67
2021/06/02 05:08:50;;;;;;;13.85;6.38;;;;;;;7.68;75.14;95470.78;4818513;29;20429;-67
2021/06/02 05:11:47;;;;;;;9.50;6.45;;;;;;;7.95;74.10;95480.41;4821539;29;20413;-67
2021/06/02 05:14:49;;;;;;;11.77;6.53;;;;;;;8.33;73.19;95476.69;4821882;29;20050;-68
2021/06/02 05:17:32;;;;;;;11.02;6.03;;;;;;;8.46;71.14;95478.06;4821021;29;20438;-67
2021/06/02 05:20:51;;;;;;;12.20;6.68;;;;;;;8.65;70.67;95480.25;4816844;29;20122;-67
2021/06/02 05:23:29;;;;;;;13.48;6.63;;;;;;;8.82;69.75;95483.44;4817145;29;20289;-67
2021/06/02 05:26:32;;;;;;;13.80;6.05;;;;;;;9.03;69.02;95483.47;4820562;29;20046;-66
2021/06/02 05:29:48;;;;;;;11.30;6.85;;;;;;;9.04;70.66;95485.06;4820358;29;20047;-66
2021/06/02 05:32:32;;;;;;;;;;;;;;;9.21;70.08;95491.91;4862954;29;20539;-67
2021/06/02 05:35:19;;;;;;;11.48;6.60;;;;;;;9.18;70.35;95490.63;4817726;29;19928;-66
2021/06/02 05:38:02;;;;;;;11.25;6.38;;;;;;;9.17;71.59;95492.44;4821108;29;20144;-67
2021/06/02 05:40:50;;;;;;;9.95;6.10;;;;;;;9.08;72.85;95491.38;4821637;29;20058;-67
2021/06/02 05:43:27;;;;;;;10.27;6.70;;;;;;;8.97;74.23;95489.78;4821941;29;20058;-67
2021/06/02 05:46:11;;;;;;;11.70;6.32;;;;;;;8.94;74.91;95491.06;4821739;29;20053;-65
2021/06/02 05:49:04;;;;;;;10.20;6.70;;;;;;;9.27;71.65;95493.50;4817799;29;20066;-65
2021/06/02 05:51:59;;;;;;;12.90;7.22;;;;;;;9.29;72.92;95496.66;4821026;29;20050;-66
2021/06/02 05:55:09;;;;;;;10.80;6.32;;;;;;;9.34;73.42;95496.66;4822053;29;20077;-65
2021/06/02 05:58:03;;;;;;;11.98;6.40;;;;;;;9.54;72.23;95496.66;4821272;29;20103;-65
2021/06/02 06:00:59;;;;;;;14.48;5.32;;;;;;;9.86;69.99;95490.34;4818433;29;20078;-65
2021/06/02 06:03:40;;;;;;;9.70;5.35;;;;;;;10.41;66.66;95495.00;4830668;29;20497;-65
2021/06/02 06:06:21;;;;;;;8.43;4.75;;;;;;;10.69;66.56;95480.41;4823484;29;20055;-67
2021/06/02 06:09:04;;;;;;;11.65;4.82;;;;;;;10.73;66.81;95488.56;4821234;29;20061;-67
2021/06/02 06:11:42;;;;;;;11.80;5.25;;;;;;;10.91;66.35;95487.94;4821757;29;20073;-67
2021/06/02 06:14:46;;;;;;;8.50;5.07;;;;;;;11.21;65.70;95491.47;4821366;29;20055;-67
2021/06/02 06:17:55;;;;;;;7.55;4.90;;;;;;;11.31;64.03;95481.94;4826769;29;20061;-67
2021/06/02 06:20:47;;;;;;;8.93;4.80;;;;;;;11.19;66.36;95488.31;4820945;29;20102;-72
2021/06/02 06:23:30;;;;;;;9.23;4.97;;;;;;;11.22;65.98;95487.78;4840628;29;20069;-70
2021/06/02 06:26:22;;;;;;;14.55;5.10;;;;;;;11.40;65.89;95488.19;4824604;29;20425;-71
2021/06/02 06:29:23;;;;;;;10.23;5.10;;;;;;;11.74;62.68;95482.13;4824662;29;20062;-69
2021/06/02 06:31:51;;;;;;;8.30;4.80;;;;;;;11.64;65.16;95483.00;4834457;29;20058;-70
2021/06/02 06:34:24;;;;;;;11.77;5.20;;;;;;;11.92;64.62;95489.34;4822162;29;20109;-70
2021/06/02 06:36:53;;;;;;;10.27;4.85;;;;;;;11.71;65.59;95498.47;4826754;29;20594;-70
2021/06/02 06:39:28;;;;;;;9.55;5.25;;;;;;;12.09;61.13;95493.44;4823650;29;20253;-70
2021/06/02 06:41:55;;;;;;;7.30;4.60;;;;;;;12.32;60.46;95496.38;4821194;29;20067;-72
2021/06/02 06:44:22;;;;;;;9.50;4.85;;;;;;;12.55;59.18;95492.94;4820986;29;20053;-69
2021/06/02 06:46:51;;;;;;;8.90;4.60;;;;;;;12.69;58.96;95497.56;4829953;29;20050;-72
2021/06/02 06:49:18;;;;;;;12.20;4.65;;;;;;;12.93;57.69;95495.66;4819558;29;20046;-72
2021/06/02 06:51:52;;;;;;;8.50;4.60;;;;;;;13.05;57.20;95499.72;4820259;29;20041;-72
2021/06/02 06:54:20;;;;;;;9.97;4.10;;;;;;;13.13;55.71;95499.06;4820900;29;20050;-72
2021/06/02 06:56:47;;;;;;;8.55;5.20;;;;;;;13.20;55.65;95499.50;4823695;29;20302;-71
2021/06/02 06:59:15;;;;;;;9.10;4.57;;;;;;;13.15;56.67;95502.22;4823960;29;20137;-71
2021/06/02 07:01:41;;;;;;;8.23;4.50;;;;;;;12.93;58.22;95506.22;4825053;29;20122;-71
2021/06/02 07:04:08;;;;;;;7.68;4.90;;;;;;;12.70;59.66;95509.66;4824833;29;20086;-71
2021/06/02 07:06:37;;;;;;;7.47;5.03;;;;;;;12.95;58.38;95514.63;4824280;29;20133;-72
2021/06/02 07:09:04;;;;;;;7.43;4.65;;;;;;;13.19;56.60;95511.16;4821338;29;20073;-71
2021/06/02 07:11:36;;;;;;;8.48;4.40;;;;;;;13.28;59.75;95506.78;4823602;29;20077;-71
2021/06/02 07:14:03;;;;;;;10.10;4.68;;;;;;;13.27;57.37;95515.78;4823836;29;20483;-71
2021/06/02 07:16:29;;;;;;;8.73;4.93;;;;;;;13.19;57.92;95519.09;4823476;29;20449;-71
2021/06/02 07:18:57;;;;;;;7.97;4.60;;;;;;;13.09;58.46;95514.72;4824598;29;20050;-71
2021/06/02 07:21:23;;;;;;;7.55;4.50;;;;;;;13.13;59.21;95509.63;4829604;29;20050;-73
2021/06/02 07:23:49;;;;;;;10.45;4.90;;;;;;;13.08;59.45;95509.72;4825835;29;20492;-71
2021/06/02 07:26:15;;;;;;;8.70;4.47;;;;;;;13.33;57.79;95517.31;4823965;29;20061;-70
2021/06/02 07:28:41;;;;;;;10.63;4.93;;;;;;;13.50;58.13;95524.75;4823681;29;20074;-71
2021/06/02 07:31:09;;;;;;;8.50;4.85;;;;;;;13.44;56.73;95519.81;4824016;29;20058;-71
2021/06/02 07:33:36;;;;;;;8.95;4.97;;;;;;;13.48;57.24;95515.53;4824445;29;20046;-71
2021/06/02 07:36:03;;;;;;;11.48;4.70;;;;;;;13.62;56.68;95524.31;4831060;29;20049;-70
2021/06/02 07:38:29;;;;;;;10.00;5.20;;;;;;;13.85;56.15;95519.22;4838639;29;20054;-70
2021/06/02 07:40:55;;;;;;;13.43;5.10;;;;;;;13.78;57.33;95518.78;4817859;29;20077;-71
2021/06/02 07:43:20;;;;;;;7.97;4.72;;;;;;;13.67;56.53;95523.44;4824684;29;20081;-71
2021/06/02 07:45:46;;;;;;;15.13;4.90;;;;;;;13.95;55.56;95524.31;4834386;29;20206;-71
2021/06/02 07:48:12;;;;;;;8.73;4.47;;;;;;;14.40;53.33;95517.75;4817860;29;20078;-70
2021/06/02 07:50:38;;;;;;;12.85;4.90;;;;;;;14.30;53.44;95524.78;4815098;29;20051;-71
2021/06/02 07:53:04;;;;;;;14.98;4.80;;;;;;;14.10;55.44;95525.91;4836533;29;20054;-71
2021/06/02 07:55:30;;;;;;;12.75;4.65;;;;;;;13.90;56.36;95521.75;4823599;29;20050;-70
2021/06/02 07:57:56;;;;;;;9.10;4.57;;;;;;;13.92;55.77;95518.81;4823308;29;20048;-71
2021/06/02 08:00:21;;;;;;;10.10;4.93;;;;;;;14.21;54.12;95526.53;4823690;29;20054;-71
2021/06/02 08:02:47;;;;;;;19.08;4.85;;;;;;;14.38;53.82;95518.81;4823622;29;20483;-71
2021/06/02 08:05:14;;;;;;;9.50;5.00;;;;;;;14.57;52.51;95520.59;4818285;29;20051;-69
2021/06/02 08:07:44;;;;;;;9.77;4.30;;;;;;;14.77;53.10;95518.63;4815963;29;20508;-71
2021/06/02 08:10:11;;;;;;;6.13;4.40;;;;;;;14.72;50.61;95528.28;4820283;29;20505;-70
2021/06/02 08:12:37;;;;;;;8.13;4.30;;;;;;;14.95;52.25;95528.34;4825740;29;20061;-69
2021/06/02 08:15:07;;;;;;;7.03;4.38;;;;;;;15.22;51.28;95522.19;4821944;29;20054;-70
2021/06/02 08:17:33;;;;;;;7.82;4.65;;;;;;;15.13;51.82;95523.19;4821104;29;20521;-69
2021/06/02 08:19:58;;;;;;;7.22;4.20;;;;;;;15.16;51.27;95533.22;4823185;29;20075;-70
2021/06/02 08:22:24;;;;;;;7.20;3.85;;;;;;;15.29;51.33;95529.75;4823206;29;20050;-71
2021/06/02 08:24:49;;;;;;;13.00;4.45;;;;;;;15.57;50.82;95527.81;4822238;29;20054;-68
2021/06/02 08:27:15;;;;;;;7.53;4.18;;;;;;;15.60;49.32;95529.06;4823715;29;20111;-77
2021/06/02 08:29:41;;;;;;;11.68;4.20;;;;;;;15.59;50.55;95530.16;4821817;29;20070;-73
2021/06/02 08:32:08;;;;;;;7.90;4.15;;;;;;;15.52;50.56;95524.50;4832905;29;20475;-72
2021/06/02 08:34:34;;;;;;;7.70;4.00;;;;;;;15.44;51.86;95523.31;4826386;29;20070;-72
2021/06/02 08:36:59;;;;;;;10.57;3.75;;;;;;;15.65;49.04;95523.66;4821136;29;20046;-71
2021/06/02 08:39:25;;;;;;;11.93;4.20;;;;;;;16.14;47.47;95525.72;4822761;29;20050;-71
2021/06/02 08:41:51;;;;;;;12.02;4.32;;;;;;;16.52;47.47;95522.59;4823187;29;20051;-72
2021/06/02 08:44:19;;;;;;;9.90;4.45;;;;;;;16.47;48.14;95525.41;4822694;29;20042;-71
2021/06/02 08:46:47;;;;;;;12.25;4.00;;;;;;;16.23;49.82;95531.84;4821513;29;20099;-72
2021/06/02 08:49:14;;;;;;;9.02;4.43;;;;;;;16.35;49.32;95529.41;4829338;29;20050;-68
2021/06/02 08:51:40;;;;;;;11.15;4.05;;;;;;;16.36;49.24;95525.66;4822547;29;20142;-71
2021/06/02 08:54:07;;;;;;;10.10;4.57;;;;;;;16.38;48.44;95523.47;4822460;29;20053;-71
2021/06/02 08:56:38;;;;;;;6.57;3.97;;;;;;;16.70;48.29;95529.53;4832976;29;20105;-77
2021/06/02 08:59:04;;;;;;;8.70;4.35;;;;;;;16.79;46.68;95525.06;4824044;29;20413;-72
2021/06/02 09:01:29;;;;;;;6.93;3.80;;;;;;;16.73;47.23;95531.56;4836514;29;20046;-71
2021/06/02 09:03:57;;;;;;;7.60;3.80;;;;;;;16.79;47.50;95526.91;4822827;29;20052;-72
2021/06/02 09:06:23;;;;;;;8.68;4.45;;;;;;;17.06;45.86;95525.91;4822196;29;20102;-72
2021/06/02 09:08:49;;;;;;;9.13;4.20;;;;;;;17.37;45.64;95519.69;4826841;29;20473;-73
2021/06/02 09:11:18;;;;;;;9.38;4.22;;;;;;;17.25;45.19;95532.81;4824902;29;20476;-73
2021/06/02 09:13:45;;;;;;;8.40;4.40;;;;;;;17.30;46.23;95530.03;4821891;29;20081;-73
2021/06/02 09:16:28;;;;;;;6.43;4.07;;;;;;;17.83;43.78;95528.91;4817174;29;20496;-73
2021/06/02 09:18:58;;;;;;;8.57;4.15;;;;;;;18.09;43.14;95533.44;4822383;29;20088;-71
2021/06/02 09:21:26;;;;;;;8.38;4.13;;;;;;;18.14;44.19;95530.59;4813939;29;20043;-69
2021/06/02 09:23:52;;;;;;;8.18;4.15;;;;;;;18.23;44.29;95532.47;4822877;29;20054;-71
2021/06/02 09:26:30;;;;;;;6.22;4.32;;;;;;;18.32;41.65;95528.69;4821713;29;20122;-69
2021/06/02 09:29:00;;;;;;;6.13;3.63;;;;;;;18.43;43.61;95526.47;4821906;29;20094;-68
2021/06/02 09:31:43;;;;;;;7.35;4.93;;;;;;;18.43;42.30;95523.81;4822393;29;20133;-70
2021/06/02 09:34:12;;;;;;;11.32;4.40;;;;;;;18.35;43.33;95524.59;4822391;29;20047;-70
2021/06/02 09:36:39;;;;;;;6.85;4.10;;;;;;;18.65;41.82;95532.66;4819954;29;20054;-72
2021/06/02 09:39:09;;;;;;;7.63;4.22;;;;;;;18.67;42.35;95535.75;4819144;29;20046;-70
2021/06/02 09:41:44;;;;;;;7.63;4.07;;;;;;;18.71;41.48;95528.69;4822375;29;20129;-68
2021/06/02 09:44:17;;;;;;;8.30;3.88;;;;;;;18.58;42.73;95532.38;4821194;29;20089;-69
2021/06/02 09:47:04;;;;;;;5.65;4.18;;;;;;;18.77;40.08;95524.75;4821735;29;20188;-69
2021/06/02 09:49:51;;;;;;;13.57;4.68;;;;;;;19.09;41.02;95525.22;4819688;29;20405;-70
2021/06/02 09:52:19;;;;;;;10.77;4.63;;;;;;;19.34;40.11;95531.50;4817196;29;20046;-70
2021/06/02 09:54:45;;;;;;;9.85;4.40;;;;;;;19.26;40.76;95539.56;4830295;29;20061;-70
2021/06/02 09:57:16;;;;;;;8.80;4.15;;;;;;;19.41;41.13;95536.31;4835198;29;20134;-70
2021/06/02 09:59:54;;;;;;;6.95;4.43;;;;;;;19.61;40.34;95541.97;4821843;29;20057;-70
2021/06/02 10:02:20;;;;;;;13.27;4.90;;;;;;;19.80;40.21;95539.66;4822005;29;20050;-70
2021/06/02 10:04:58;;;;;;;7.25;3.90;;;;;;;20.07;39.06;95534.84;4821830;29;20050;-69
2021/06/02 10:07:23;;;;;;;5.97;4.50;;;;;;;20.25;39.24;95536.22;4820877;29;20055;-69
2021/06/02 10:09:49;;;;;;;8.93;4.45;;;;;;;20.45;38.94;95533.03;4822007;29;20073;-69
2021/06/02 10:12:15;;;;;;;12.38;4.28;;;;;;;20.68;37.98;95536.09;4821549;29;20077;-69
2021/06/02 10:14:54;;;;;;;6.95;4.53;;;;;;;20.89;37.49;95536.00;4821719;29;20505;-68
2021/06/02 10:17:38;;;;;;;8.93;4.05;;;;;;;21.05;35.50;95539.53;4820753;29;20065;-69
2021/06/02 10:20:13;;;;;;;11.85;5.03;;;;;;;20.99;37.15;95540.09;4821172;29;20046;-69
2021/06/02 10:22:43;;;;;;;;;;;;;;;21.25;35.93;95532.50;4822968;29;20058;-71
2021/06/02 10:25:10;;;;;;;7.45;4.32;;;;;;;21.83;35.21;95544.09;4822517;29;20369;-68
2021/06/02 10:27:37;;;;;;;7.38;4.35;;;;;;;21.88;34.35;95536.59;4822413;29;20061;-72
2021/06/02 10:30:06;;;;;;;7.97;4.07;;;;;;;22.59;33.90;95531.50;4821498;29;20462;-71
2021/06/02 10:32:32;;;;;;;8.95;4.15;;;;;;;22.80;31.97;95531.25;4821966;29;20519;-72
2021/06/02 10:34:58;;;;;;;7.90;4.80;;;;;;;23.33;31.08;95536.31;4822421;29;20054;-70
2021/06/02 10:37:24;;;;;;;7.55;4.60;;;;;;;24.33;29.51;95541.31;4824644;29;20066;-71
2021/06/02 10:40:28;;;;;;;10.02;4.32;;;;;;;24.83;28.30;95536.03;4837927;29;20170;-71
2021/06/02 10:43:18;;;;;;;8.55;4.25;;;;;;;25.01;28.23;95531.69;4821154;29;20503;-71
2021/06/02 10:45:53;;;;;;;8.23;4.03;;;;;;;25.35;28.53;95544.47;4827229;29;20058;-70
2021/06/02 10:48:41;;;;;;;12.45;4.07;;;;;;;25.38;26.38;95533.75;4823571;29;20062;-72
2021/06/02 10:51:23;;;;;;;8.35;4.30;;;;;;;24.71;27.17;95539.66;4830713;29;20180;-72
2021/06/02 10:54:16;;;;;;;13.75;3.85;;;;;;;26.03;27.47;95542.66;4823840;29;20053;-71
2021/06/02 10:57:02;;;;;;;8.18;3.53;;;;;;;26.98;24.48;95545.06;4819781;29;20134;-71
2021/06/02 10:59:35;;;;;;;8.15;3.90;;;;;;;27.31;24.42;95548.72;4823501;29;20054;-70
2021/06/02 11:02:05;;;;;;;8.10;3.90;;;;;;;27.39;23.93;95528.75;4824202;29;20110;-72
2021/06/02 11:04:32;;;;;;;5.35;3.70;;;;;;;27.59;23.89;95537.31;4826387;29;20644;-70
2021/06/02 11:07:33;;;;;;;7.32;4.10;;;;;;;27.53;22.58;95546.16;4822800;29;20053;-75
2021/06/02 11:10:05;;;;;;;6.13;3.90;;;;;;;27.57;22.44;95539.66;4826957;29;20058;-69
2021/06/02 11:12:47;;;;;;;6.47;3.90;;;;;;;27.99;21.81;95537.53;4822006;29;20531;-69
2021/06/02 11:15:23;;;;;;;11.30;3.65;;;;;;;26.77;23.52;95538.34;4820087;29;20058;-69
2021/06/02 11:18:09;;;;;;;4.75;3.58;;;;;;;27.62;22.12;95535.81;4835657;29;20042;-70
2021/06/02 11:20:42;;;;;;;8.07;3.65;;;;;;;28.72;21.23;95541.13;4838562;29;20470;-70
2021/06/02 11:23:12;;;;;;;10.30;4.25;;;;;;;27.18;22.22;95544.78;4802644;29;20500;-69
2021/06/02 11:25:39;;;;;;;5.40;3.70;;;;;;;28.22;21.91;95544.53;4811541;29;20058;-70
2021/06/02 11:28:06;;;;;;;5.72;3.70;;;;;;;27.37;21.03;95544.56;4830888;29;20494;-69
2021/06/02 11:30:32;;;;;;;6.07;3.60;;;;;;;27.14;22.39;95540.16;4820416;29;20464;-70
2021/06/02 11:33:09;;;;;;;5.90;3.55;;;;;;;28.42;21.12;95543.03;4846283;29;20512;-70
2021/06/02 11:36:04;;;;;;;10.85;4.10;;;;;;;28.64;20.32;95537.66;4819996;29;20082;-69
2021/06/02 11:38:30;;;;;;;5.45;3.78;;;;;;;28.97;19.61;95533.75;4820468;29;20046;-70
2021/06/02 11:40:56;;;;;;;5.65;3.63;;;;;;;29.16;20.19;95540.69;4821244;29;20062;-70
2021/06/02 11:43:22;;;;;;;11.43;3.75;;;;;;;29.73;19.82;95533.63;4823334;29;20050;-70
2021/06/02 11:45:49;;;;;;;4.00;3.17;;;;;;;28.99;19.62;95536.88;4823822;29;20053;-70
2021/06/02 11:48:19;;;;;;;5.20;3.70;;;;;;;29.82;17.72;95530.47;4823054;29;20054;-70
2021/06/02 11:50:45;;;;;;;4.90;3.50;;;;;;;30.64;18.41;95528.47;4823286;29;20501;-70
2021/06/02 11:53:11;;;;;;;6.18;3.47;;;;;;;29.72;19.95;95526.63;4824014;29;20137;-69
2021/06/02 11:55:36;;;;;;;3.80;3.40;;;;;;;29.09;18.68;95529.88;4823416;29;20054;-70
2021/06/02 11:58:03;;;;;;;8.32;3.70;;;;;;;29.72;18.23;95529.34;4822822;29;20489;-70
2021/06/02 12:00:35;;;;;;;5.68;3.28;;;;;;;30.69;18.35;95526.13;4820011;29;20057;-70
2021/06/02 12:03:06;;;;;;;6.57;3.47;;;;;;;31.45;17.71;95530.88;4822513;29;20069;-70
2021/06/02 12:05:39;;;;;;;8.20;3.80;;;;;;;31.54;16.66;95539.31;4823345;29;20397;-71
2021/06/02 12:08:07;;;;;;;6.13;3.85;;;;;;;31.35;17.30;95531.75;4822963;29;20061;-71
2021/06/02 12:10:36;;;;;;;8.45;4.03;;;;;;;30.81;17.04;95533.00;4823788;29;20050;-71
2021/06/02 12:13:04;;;;;;;6.43;3.60;;;;;;;31.30;16.69;95529.47;4837634;29;20078;-71
2021/06/02 12:15:46;;;;;;;6.40;3.53;;;;;;;31.30;16.63;95524.03;4822102;29;20137;-66